sensor_id;sensor_type;location;lat;lon;timestamp;temperature;humidity
9125;DHT22;4597;48.730;9.114;2023-04-01T00:00:19;10.20;99.90
9125;DHT22;4597;48.730;9.114;2023-04-01T00:02:45;10.20;99.90
9125;DHT22;4597;48.730;9.114;2023-04-01T00:05:11;10.20;99.90
9125;DHT22;4597;48.730;9.114;2023-04-01T00:07:37;10.20;99.90
9125;DHT22;4597;48.730;9.114;2023-04-01T00:10:05;10.20;99.90
9125;DHT22;4597;48.730;9.114;2023-04-01T00:12:30;10.20;99.90
9125;DHT22;4597;48.730;9.114;2023-04-01T00:14:56;10.20;99.90
9125;DHT22;4597;48.730;9.114;2023-04-01T00:17:22;10.20;99.90
9125;DHT22;4597;48.730;9.114;2023-04-01T00:19:47;10.30;99.90
9125;DHT22;4597;48.730;9.114;2023-04-01T00:22:13;10.20;99.90
9125;DHT22;4597;48.730;9.114;2023-04-01T00:24:39;10.30;99.90
9125;DHT22;4597;48.730;9.114;2023-04-01T00:27:05;10.20;99.90
9125;DHT22;4597;48.730;9.114;2023-04-01T00:29:31;10.30;99.90
9125;DHT22;4597;48.730;9.114;2023-04-01T00:31:57;10.20;99.90
9125;DHT22;4597;48.730;9.114;2023-04-01T00:34:23;10.20;99.90
9125;DHT22;4597;48.730;9.114;2023-04-01T00:36:50;10.20;99.90
9125;DHT22;4597;48.730;9.114;2023-04-01T00:39:16;10.30;99.90
9125;DHT22;4597;48.730;9.114;2023-04-01T00:41:41;10.30;99.90
9125;DHT22;4597;48.730;9.114;2023-04-01T00:44:21;10.30;99.90
9125;DHT22;4597;48.730;9.114;2023-04-01T00:46:47;10.30;99.90
9125;DHT22;4597;48.730;9.114;2023-04-01T00:49:13;10.40;99.90
9125;DHT22;4597;48.730;9.114;2023-04-01T00:51:41;10.40;99.90
9125;DHT22;4597;48.730;9.114;2023-04-01T00:54:08;10.40;99.90
9125;DHT22;4597;48.730;9.114;2023-04-01T00:56:44;10.40;99.90
9125;DHT22;4597;48.730;9.114;2023-04-01T00:59:18;10.40;99.90
9125;DHT22;4597;48.730;9.114;2023-04-01T01:01:46;10.40;99.90
9125;DHT22;4597;48.730;9.114;2023-04-01T01:04:29;10.40;99.90
9125;DHT22;4597;48.730;9.114;2023-04-01T01:10:17;10.40;99.90
9125;DHT22;4597;48.730;9.114;2023-04-01T01:15:31;10.30;99.90
9125;DHT22;4597;48.730;9.114;2023-04-01T01:23:29;10.30;99.90
9125;DHT22;4597;48.730;9.114;2023-04-01T01:26:29;10.30;99.90
9125;DHT22;4597;48.730;9.114;2023-04-01T01:29:14;10.30;99.90
9125;DHT22;4597;48.730;9.114;2023-04-01T01:37:40;10.30;99.90
9125;DHT22;4597;48.730;9.114;2023-04-01T01:40:09;10.30;99.90
9125;DHT22;4597;48.730;9.114;2023-04-01T01:42:39;10.40;99.90
9125;DHT22;4597;48.730;9.114;2023-04-01T01:45:08;10.30;99.90
9125;DHT22;4597;48.730;9.114;2023-04-01T01:47:35;10.40;99.90
9125;DHT22;4597;48.730;9.114;2023-04-01T01:50:01;10.30;99.90
9125;DHT22;4597;48.730;9.114;2023-04-01T01:52:28;10.40;99.90
9125;DHT22;4597;48.730;9.114;2023-04-01T01:54:56;10.40;99.90
9125;DHT22;4597;48.730;9.114;2023-04-01T01:57:36;10.40;99.90
9125;DHT22;4597;48.730;9.114;2023-04-01T02:00:07;10.40;99.90
9125;DHT22;4597;48.730;9.114;2023-04-01T02:02:40;10.40;99.90
9125;DHT22;4597;48.730;9.114;2023-04-01T02:05:08;10.30;99.90
9125;DHT22;4597;48.730;9.114;2023-04-01T02:07:35;10.40;99.90
9125;DHT22;4597;48.730;9.114;2023-04-01T02:10:03;10.30;99.90
9125;DHT22;4597;48.730;9.114;2023-04-01T02:12:29;10.20;99.90
9125;DHT22;4597;48.730;9.114;2023-04-01T02:15:03;10.20;99.90
9125;DHT22;4597;48.730;9.114;2023-04-01T02:17:32;10.20;99.90
9125;DHT22;4597;48.730;9.114;2023-04-01T02:20:16;10.20;99.90
9125;DHT22;4597;48.730;9.114;2023-04-01T02:22:49;10.20;99.90
9125;DHT22;4597;48.730;9.114;2023-04-01T02:25:22;10.20;99.90
9125;DHT22;4597;48.730;9.114;2023-04-01T02:27:48;10.20;99.90
9125;DHT22;4597;48.730;9.114;2023-04-01T02:30:16;10.20;99.90
9125;DHT22;4597;48.730;9.114;2023-04-01T02:32:42;10.10;99.90
9125;DHT22;4597;48.730;9.114;2023-04-01T02:35:10;10.10;99.90
9125;DHT22;4597;48.730;9.114;2023-04-01T02:37:37;10.10;99.90
9125;DHT22;4597;48.730;9.114;2023-04-01T02:40:04;10.10;99.90
9125;DHT22;4597;48.730;9.114;2023-04-01T02:42:32;10.10;99.90
9125;DHT22;4597;48.730;9.114;2023-04-01T02:44:57;10.10;99.90
9125;DHT22;4597;48.730;9.114;2023-04-01T02:47:23;10.00;99.90
9125;DHT22;4597;48.730;9.114;2023-04-01T02:49:48;10.00;99.90
9125;DHT22;4597;48.730;9.114;2023-04-01T02:52:14;10.00;99.90
9125;DHT22;4597;48.730;9.114;2023-04-01T02:54:39;9.90;99.90
9125;DHT22;4597;48.730;9.114;2023-04-01T02:57:05;9.90;99.90
9125;DHT22;4597;48.730;9.114;2023-04-01T02:59:31;9.90;99.90
9125;DHT22;4597;48.730;9.114;2023-04-01T03:01:57;9.80;99.90
9125;DHT22;4597;48.730;9.114;2023-04-01T03:04:22;9.80;99.90
9125;DHT22;4597;48.730;9.114;2023-04-01T03:06:48;9.80;99.90
9125;DHT22;4597;48.730;9.114;2023-04-01T03:09:13;9.80;99.90
9125;DHT22;4597;48.730;9.114;2023-04-01T03:11:39;9.80;99.90
9125;DHT22;4597;48.730;9.114;2023-04-01T03:14:06;9.80;99.90
9125;DHT22;4597;48.730;9.114;2023-04-01T03:16:32;9.70;99.90
9125;DHT22;4597;48.730;9.114;2023-04-01T03:18:57;9.70;99.90
9125;DHT22;4597;48.730;9.114;2023-04-01T03:21:25;9.80;99.90
9125;DHT22;4597;48.730;9.114;2023-04-01T03:23:51;9.70;99.90
9125;DHT22;4597;48.730;9.114;2023-04-01T03:26:17;9.70;99.90
9125;DHT22;4597;48.730;9.114;2023-04-01T03:28:43;9.70;99.90
9125;DHT22;4597;48.730;9.114;2023-04-01T03:31:09;9.70;99.90
9125;DHT22;4597;48.730;9.114;2023-04-01T03:33:35;9.70;99.90
9125;DHT22;4597;48.730;9.114;2023-04-01T03:36:01;9.70;99.90
9125;DHT22;4597;48.730;9.114;2023-04-01T03:38:26;9.60;99.90
9125;DHT22;4597;48.730;9.114;2023-04-01T03:40:52;9.60;99.90
9125;DHT22;4597;48.730;9.114;2023-04-01T03:43:17;9.60;99.90
9125;DHT22;4597;48.730;9.114;2023-04-01T03:45:44;9.60;99.90
9125;DHT22;4597;48.730;9.114;2023-04-01T03:48:10;9.60;99.90
9125;DHT22;4597;48.730;9.114;2023-04-01T03:50:36;9.60;99.90
9125;DHT22;4597;48.730;9.114;2023-04-01T03:53:01;9.60;99.90
9125;DHT22;4597;48.730;9.114;2023-04-01T03:55:27;9.50;99.90
9125;DHT22;4597;48.730;9.114;2023-04-01T03:57:52;9.60;99.90
9125;DHT22;4597;48.730;9.114;2023-04-01T04:00:18;9.60;99.90
9125;DHT22;4597;48.730;9.114;2023-04-01T04:02:44;9.60;99.90
9125;DHT22;4597;48.730;9.114;2023-04-01T04:05:09;9.60;99.90
9125;DHT22;4597;48.730;9.114;2023-04-01T04:07:36;9.60;99.90
9125;DHT22;4597;48.730;9.114;2023-04-01T04:10:01;9.60;99.90
9125;DHT22;4597;48.730;9.114;2023-04-01T04:12:27;9.60;99.90
9125;DHT22;4597;48.730;9.114;2023-04-01T04:14:52;9.60;99.90
9125;DHT22;4597;48.730;9.114;2023-04-01T04:17:18;9.60;99.90
9125;DHT22;4597;48.730;9.114;2023-04-01T04:19:43;9.60;99.90
9125;DHT22;4597;48.730;9.114;2023-04-01T04:22:09;9.60;99.90
9125;DHT22;4597;48.730;9.114;2023-04-01T04:24:35;9.60;99.90
9125;DHT22;4597;48.730;9.114;2023-04-01T04:27:01;9.70;99.90
9125;DHT22;4597;48.730;9.114;2023-04-01T04:29:27;9.70;99.90
9125;DHT22;4597;48.730;9.114;2023-04-01T04:31:53;9.70;99.90
9125;DHT22;4597;48.730;9.114;2023-04-01T04:34:18;9.70;99.90
9125;DHT22;4597;48.730;9.114;2023-04-01T04:36:44;9.70;99.90
9125;DHT22;4597;48.730;9.114;2023-04-01T04:39:10;9.70;99.90
9125;DHT22;4597;48.730;9.114;2023-04-01T04:41:37;9.80;99.90
9125;DHT22;4597;48.730;9.114;2023-04-01T04:44:03;9.70;99.90
9125;DHT22;4597;48.730;9.114;2023-04-01T04:46:28;9.70;99.90
9125;DHT22;4597;48.730;9.114;2023-04-01T04:48:54;9.70;99.90
9125;DHT22;4597;48.730;9.114;2023-04-01T04:51:20;9.70;99.90
9125;DHT22;4597;48.730;9.114;2023-04-01T04:53:46;9.80;99.90
9125;DHT22;4597;48.730;9.114;2023-04-01T04:56:11;9.70;99.90
9125;DHT22;4597;48.730;9.114;2023-04-01T04:58:38;9.70;99.90
9125;DHT22;4597;48.730;9.114;2023-04-01T05:01:09;9.80;99.90
9125;DHT22;4597;48.730;9.114;2023-04-01T05:03:35;9.80;99.90
9125;DHT22;4597;48.730;9.114;2023-04-01T05:06:01;9.70;99.90
9125;DHT22;4597;48.730;9.114;2023-04-01T05:08:26;9.80;99.90
9125;DHT22;4597;48.730;9.114;2023-04-01T05:10:52;9.70;99.90
9125;DHT22;4597;48.730;9.114;2023-04-01T05:13:17;9.70;99.90
9125;DHT22;4597;48.730;9.114;2023-04-01T05:15:43;9.70;99.90
9125;DHT22;4597;48.730;9.114;2023-04-01T05:18:08;9.70;99.90
9125;DHT22;4597;48.730;9.114;2023-04-01T05:20:34;9.70;99.90
9125;DHT22;4597;48.730;9.114;2023-04-01T05:23:00;9.80;99.90
9125;DHT22;4597;48.730;9.114;2023-04-01T05:25:25;9.80;99.90
9125;DHT22;4597;48.730;9.114;2023-04-01T05:27:51;9.80;99.90
9125;DHT22;4597;48.730;9.114;2023-04-01T05:30:17;9.80;99.90
9125;DHT22;4597;48.730;9.114;2023-04-01T05:32:43;9.80;99.90
9125;DHT22;4597;48.730;9.114;2023-04-01T05:35:09;9.80;99.90
9125;DHT22;4597;48.730;9.114;2023-04-01T05:37:35;9.80;99.90
9125;DHT22;4597;48.730;9.114;2023-04-01T05:40:01;9.80;99.90
9125;DHT22;4597;48.730;9.114;2023-04-01T05:42:27;9.80;99.90
9125;DHT22;4597;48.730;9.114;2023-04-01T05:44:52;9.70;99.90
9125;DHT22;4597;48.730;9.114;2023-04-01T05:47:18;9.80;99.90
9125;DHT22;4597;48.730;9.114;2023-04-01T05:49:43;9.90;99.90
9125;DHT22;4597;48.730;9.114;2023-04-01T05:52:09;9.90;99.90
9125;DHT22;4597;48.730;9.114;2023-04-01T05:54:34;9.90;99.90
9125;DHT22;4597;48.730;9.114;2023-04-01T05:57:00;9.90;99.90
9125;DHT22;4597;48.730;9.114;2023-04-01T05:59:25;9.90;99.90
9125;DHT22;4597;48.730;9.114;2023-04-01T06:01:51;9.90;99.90
9125;DHT22;4597;48.730;9.114;2023-04-01T06:04:18;10.00;99.90
9125;DHT22;4597;48.730;9.114;2023-04-01T06:06:44;10.00;99.90
9125;DHT22;4597;48.730;9.114;2023-04-01T06:09:18;10.10;99.90
9125;DHT22;4597;48.730;9.114;2023-04-01T06:12:01;10.10;99.90
9125;DHT22;4597;48.730;9.114;2023-04-01T06:17:48;10.10;99.90
9125;DHT22;4597;48.730;9.114;2023-04-01T06:24:16;10.20;99.90
9125;DHT22;4597;48.730;9.114;2023-04-01T06:31:55;10.20;99.90
9125;DHT22;4597;48.730;9.114;2023-04-01T06:35:02;10.20;99.90
9125;DHT22;4597;48.730;9.114;2023-04-01T06:48:32;10.10;99.90
9125;DHT22;4597;48.730;9.114;2023-04-01T06:54:16;10.10;99.90
9125;DHT22;4597;48.730;9.114;2023-04-01T06:56:42;10.20;99.90
9125;DHT22;4597;48.730;9.114;2023-04-01T06:59:20;10.10;99.90
9125;DHT22;4597;48.730;9.114;2023-04-01T07:01:54;10.10;99.90
9125;DHT22;4597;48.730;9.114;2023-04-01T07:04:25;10.00;99.90
9125;DHT22;4597;48.730;9.114;2023-04-01T07:06:58;10.00;99.90
9125;DHT22;4597;48.730;9.114;2023-04-01T07:09:30;10.00;99.90
9125;DHT22;4597;48.730;9.114;2023-04-01T07:12:06;10.00;99.90
9125;DHT22;4597;48.730;9.114;2023-04-01T07:14:38;10.10;99.90
9125;DHT22;4597;48.730;9.114;2023-04-01T07:17:22;10.10;99.90
9125;DHT22;4597;48.730;9.114;2023-04-01T07:20:12;10.10;99.90
9125;DHT22;4597;48.730;9.114;2023-04-01T07:22:46;10.20;99.90
9125;DHT22;4597;48.730;9.114;2023-04-01T07:25:52;10.30;99.90
9125;DHT22;4597;48.730;9.114;2023-04-01T07:28:17;10.30;99.90
9125;DHT22;4597;48.730;9.114;2023-04-01T07:36:15;10.30;99.90
9125;DHT22;4597;48.730;9.114;2023-04-01T07:39:08;10.30;99.90
9125;DHT22;4597;48.730;9.114;2023-04-01T07:41:49;10.30;99.90
9125;DHT22;4597;48.730;9.114;2023-04-01T07:47:09;10.40;99.90
9125;DHT22;4597;48.730;9.114;2023-04-01T07:49:49;10.40;99.90
9125;DHT22;4597;48.730;9.114;2023-04-01T07:52:30;10.50;99.90
9125;DHT22;4597;48.730;9.114;2023-04-01T07:55:10;10.50;99.90
9125;DHT22;4597;48.730;9.114;2023-04-01T08:00:22;10.50;99.90
9125;DHT22;4597;48.730;9.114;2023-04-01T08:11:26;10.30;99.90
9125;DHT22;4597;48.730;9.114;2023-04-01T08:14:15;10.30;99.90
9125;DHT22;4597;48.730;9.114;2023-04-01T08:22:25;10.30;99.90
9125;DHT22;4597;48.730;9.114;2023-04-01T08:24:52;10.40;99.90
9125;DHT22;4597;48.730;9.114;2023-04-01T08:27:24;10.30;99.90
9125;DHT22;4597;48.730;9.114;2023-04-01T08:29:57;10.20;99.90
9125;DHT22;4597;48.730;9.114;2023-04-01T08:32:35;10.10;99.90
9125;DHT22;4597;48.730;9.114;2023-04-01T08:35:31;10.00;99.90
9125;DHT22;4597;48.730;9.114;2023-04-01T08:38:04;10.10;99.90
9125;DHT22;4597;48.730;9.114;2023-04-01T08:40:55;10.10;99.90
9125;DHT22;4597;48.730;9.114;2023-04-01T08:49:30;9.90;99.90
9125;DHT22;4597;48.730;9.114;2023-04-01T08:55:31;10.00;99.90
9125;DHT22;4597;48.730;9.114;2023-04-01T08:58:22;10.00;99.90
9125;DHT22;4597;48.730;9.114;2023-04-01T09:01:12;10.10;99.90
9125;DHT22;4597;48.730;9.114;2023-04-01T09:06:39;10.40;99.90
9125;DHT22;4597;48.730;9.114;2023-04-01T09:14:57;10.60;99.90
9125;DHT22;4597;48.730;9.114;2023-04-01T09:17:51;10.60;99.90
9125;DHT22;4597;48.730;9.114;2023-04-01T09:26:08;10.60;99.90
9125;DHT22;4597;48.730;9.114;2023-04-01T09:28:49;10.50;99.90
9125;DHT22;4597;48.730;9.114;2023-04-01T09:31:41;10.60;99.90
9125;DHT22;4597;48.730;9.114;2023-04-01T09:34:30;10.70;99.90
9125;DHT22;4597;48.730;9.114;2023-04-01T09:37:17;10.60;99.90
9125;DHT22;4597;48.730;9.114;2023-04-01T09:45:03;10.60;99.90
9125;DHT22;4597;48.730;9.114;2023-04-01T09:56:59;10.90;99.90
9125;DHT22;4597;48.730;9.114;2023-04-01T10:05:25;11.00;99.90
9125;DHT22;4597;48.730;9.114;2023-04-01T10:07:59;10.80;99.90
9125;DHT22;4597;48.730;9.114;2023-04-01T10:16:03;10.80;99.90
9125;DHT22;4597;48.730;9.114;2023-04-01T10:18:57;10.80;99.90
9125;DHT22;4597;48.730;9.114;2023-04-01T10:30:36;10.80;99.90
9125;DHT22;4597;48.730;9.114;2023-04-01T10:33:25;10.80;99.90
9125;DHT22;4597;48.730;9.114;2023-04-01T10:36:08;10.80;99.90
9125;DHT22;4597;48.730;9.114;2023-04-01T10:41:50;11.00;99.90
9125;DHT22;4597;48.730;9.114;2023-04-01T10:50:22;11.20;99.90
9125;DHT22;4597;48.730;9.114;2023-04-01T10:53:15;11.20;99.90
9125;DHT22;4597;48.730;9.114;2023-04-01T10:56:29;11.20;99.90
9125;DHT22;4597;48.730;9.114;2023-04-01T11:22:31;11.60;99.90
9125;DHT22;4597;48.730;9.114;2023-04-01T11:28:16;11.50;99.90
9125;DHT22;4597;48.730;9.114;2023-04-01T11:44:29;11.50;99.90
9125;DHT22;4597;48.730;9.114;2023-04-01T11:50:57;11.20;99.90
9125;DHT22;4597;48.730;9.114;2023-04-01T11:56:19;11.10;99.90
9125;DHT22;4597;48.730;9.114;2023-04-01T11:59:01;11.30;99.90
9125;DHT22;4597;48.730;9.114;2023-04-01T12:07:06;11.70;99.90
9125;DHT22;4597;48.730;9.114;2023-04-01T12:10:10;11.60;99.90
9125;DHT22;4597;48.730;9.114;2023-04-01T12:13:02;11.60;99.90
9125;DHT22;4597;48.730;9.114;2023-04-01T12:15:54;11.70;99.90
9125;DHT22;4597;48.730;9.114;2023-04-01T12:18:38;11.80;99.90
9125;DHT22;4597;48.730;9.114;2023-04-01T12:22:13;11.80;99.90
9125;DHT22;4597;48.730;9.114;2023-04-01T12:30:14;11.80;99.90
9125;DHT22;4597;48.730;9.114;2023-04-01T12:36:00;11.70;99.90
9125;DHT22;4597;48.730;9.114;2023-04-01T12:38:35;11.80;99.90
9125;DHT22;4597;48.730;9.114;2023-04-01T12:49:40;11.70;99.90
9125;DHT22;4597;48.730;9.114;2023-04-01T12:52:25;11.80;99.90
9125;DHT22;4597;48.730;9.114;2023-04-01T12:55:12;11.80;99.90
9125;DHT22;4597;48.730;9.114;2023-04-01T12:57:51;11.70;99.90
9125;DHT22;4597;48.730;9.114;2023-04-01T13:12:34;10.90;99.90
9125;DHT22;4597;48.730;9.114;2023-04-01T13:15:23;10.80;99.90
9125;DHT22;4597;48.730;9.114;2023-04-01T13:20:36;10.70;99.90
9125;DHT22;4597;48.730;9.114;2023-04-01T13:23:35;10.80;99.90
9125;DHT22;4597;48.730;9.114;2023-04-01T13:28:47;11.00;99.90
9125;DHT22;4597;48.730;9.114;2023-04-01T13:34:13;11.00;99.90
9125;DHT22;4597;48.730;9.114;2023-04-01T13:53:04;10.20;99.90
9125;DHT22;4597;48.730;9.114;2023-04-01T13:55:55;10.30;99.90
9125;DHT22;4597;48.730;9.114;2023-04-01T13:59:02;10.50;99.90
9125;DHT22;4597;48.730;9.114;2023-04-01T14:12:49;10.90;99.90
9125;DHT22;4597;48.730;9.114;2023-04-01T14:15:29;11.00;99.90
9125;DHT22;4597;48.730;9.114;2023-04-01T14:23:49;11.30;99.90
9125;DHT22;4597;48.730;9.114;2023-04-01T14:26:21;11.30;99.90
9125;DHT22;4597;48.730;9.114;2023-04-01T14:31:41;11.10;99.90
9125;DHT22;4597;48.730;9.114;2023-04-01T14:34:28;11.20;99.90
9125;DHT22;4597;48.730;9.114;2023-04-01T14:42:58;11.30;99.90
9125;DHT22;4597;48.730;9.114;2023-04-01T14:48:30;11.40;99.90
9125;DHT22;4597;48.730;9.114;2023-04-01T14:51:03;11.50;99.90
9125;DHT22;4597;48.730;9.114;2023-04-01T14:53:36;11.70;99.90
9125;DHT22;4597;48.730;9.114;2023-04-01T14:56:04;11.60;99.90
9125;DHT22;4597;48.730;9.114;2023-04-01T14:58:46;11.40;99.90
9125;DHT22;4597;48.730;9.114;2023-04-01T15:01:36;11.20;99.90
9125;DHT22;4597;48.730;9.114;2023-04-01T15:06:51;11.20;99.90
9125;DHT22;4597;48.730;9.114;2023-04-01T15:14:45;11.50;99.90
9125;DHT22;4597;48.730;9.114;2023-04-01T15:20:29;11.50;99.90
9125;DHT22;4597;48.730;9.114;2023-04-01T15:23:19;11.60;99.90
9125;DHT22;4597;48.730;9.114;2023-04-01T15:28:39;11.40;99.90
9125;DHT22;4597;48.730;9.114;2023-04-01T15:31:16;11.30;99.90
9125;DHT22;4597;48.730;9.114;2023-04-01T15:37:11;11.40;99.90
9125;DHT22;4597;48.730;9.114;2023-04-01T15:40:03;11.50;99.90
9125;DHT22;4597;48.730;9.114;2023-04-01T15:42:48;11.40;99.90
9125;DHT22;4597;48.730;9.114;2023-04-01T15:48:19;11.30;99.90
9125;DHT22;4597;48.730;9.114;2023-04-01T15:51:23;11.30;99.90
9125;DHT22;4597;48.730;9.114;2023-04-01T16:08:21;11.00;99.90
9125;DHT22;4597;48.730;9.114;2023-04-01T16:11:12;11.00;99.90
9125;DHT22;4597;48.730;9.114;2023-04-01T16:16:39;11.00;99.90
9125;DHT22;4597;48.730;9.114;2023-04-01T16:21:58;11.10;99.90
9125;DHT22;4597;48.730;9.114;2023-04-01T16:24:35;11.10;99.90
9125;DHT22;4597;48.730;9.114;2023-04-01T16:30:00;11.00;99.90
9125;DHT22;4597;48.730;9.114;2023-04-01T16:32:44;10.90;99.90
9125;DHT22;4597;48.730;9.114;2023-04-01T16:40:45;11.00;99.90
9125;DHT22;4597;48.730;9.114;2023-04-01T16:43:19;10.90;99.90
9125;DHT22;4597;48.730;9.114;2023-04-01T16:46:19;10.90;99.90
9125;DHT22;4597;48.730;9.114;2023-04-01T16:49:00;10.90;99.90
9125;DHT22;4597;48.730;9.114;2023-04-01T16:51:35;10.90;99.90
9125;DHT22;4597;48.730;9.114;2023-04-01T16:54:06;10.90;99.90
9125;DHT22;4597;48.730;9.114;2023-04-01T16:56:53;10.90;99.90
9125;DHT22;4597;48.730;9.114;2023-04-01T16:59:25;11.00;99.90
9125;DHT22;4597;48.730;9.114;2023-04-01T17:02:11;11.00;99.90
9125;DHT22;4597;48.730;9.114;2023-04-01T17:05:00;11.10;99.90
9125;DHT22;4597;48.730;9.114;2023-04-01T17:07:44;11.00;99.90
9125;DHT22;4597;48.730;9.114;2023-04-01T17:10:33;11.10;99.90
9125;DHT22;4597;48.730;9.114;2023-04-01T17:13:29;11.10;99.90
9125;DHT22;4597;48.730;9.114;2023-04-01T17:18:54;11.00;99.90
9125;DHT22;4597;48.730;9.114;2023-04-01T17:30:03;10.90;99.90
9125;DHT22;4597;48.730;9.114;2023-04-01T17:32:53;10.80;99.90
9125;DHT22;4597;48.730;9.114;2023-04-01T17:41:16;10.40;99.90
9125;DHT22;4597;48.730;9.114;2023-04-01T17:52:38;10.10;99.90
9125;DHT22;4597;48.730;9.114;2023-04-01T17:55:33;10.10;99.90
9125;DHT22;4597;48.730;9.114;2023-04-01T18:00:58;10.10;99.90
9125;DHT22;4597;48.730;9.114;2023-04-01T18:03:51;10.10;99.90
9125;DHT22;4597;48.730;9.114;2023-04-01T18:06:47;10.10;99.90
9125;DHT22;4597;48.730;9.114;2023-04-01T18:09:46;10.20;99.90
9125;DHT22;4597;48.730;9.114;2023-04-01T18:21:53;10.20;99.90
9125;DHT22;4597;48.730;9.114;2023-04-01T18:24:45;10.10;99.90
9125;DHT22;4597;48.730;9.114;2023-04-01T18:27:24;10.10;99.90
9125;DHT22;4597;48.730;9.114;2023-04-01T18:33:05;10.10;99.90
9125;DHT22;4597;48.730;9.114;2023-04-01T18:35:51;10.10;99.90
9125;DHT22;4597;48.730;9.114;2023-04-01T18:38:54;10.10;99.90
9125;DHT22;4597;48.730;9.114;2023-04-01T18:41:20;10.10;99.90
9125;DHT22;4597;48.730;9.114;2023-04-01T18:47:25;10.00;99.90
9125;DHT22;4597;48.730;9.114;2023-04-01T18:50:06;9.90;99.90
9125;DHT22;4597;48.730;9.114;2023-04-01T18:52:40;9.80;99.90
9125;DHT22;4597;48.730;9.114;2023-04-01T18:55:22;9.80;99.90
9125;DHT22;4597;48.730;9.114;2023-04-01T18:57:51;9.80;99.90
9125;DHT22;4597;48.730;9.114;2023-04-01T19:00:28;9.80;99.90
9125;DHT22;4597;48.730;9.114;2023-04-01T19:03:00;9.70;99.90
9125;DHT22;4597;48.730;9.114;2023-04-01T19:05:47;9.70;99.90
9125;DHT22;4597;48.730;9.114;2023-04-01T19:13:55;9.70;99.90
9125;DHT22;4597;48.730;9.114;2023-04-01T19:19:32;9.70;99.90
9125;DHT22;4597;48.730;9.114;2023-04-01T19:27:37;9.70;99.90
9125;DHT22;4597;48.730;9.114;2023-04-01T19:39:15;9.50;99.90
9125;DHT22;4597;48.730;9.114;2023-04-01T19:41:54;9.60;99.90
9125;DHT22;4597;48.730;9.114;2023-04-01T19:44:25;9.60;99.90
9125;DHT22;4597;48.730;9.114;2023-04-01T19:47:02;9.60;99.90
9125;DHT22;4597;48.730;9.114;2023-04-01T20:00:15;9.40;99.90
9125;DHT22;4597;48.730;9.114;2023-04-01T20:08:16;9.50;99.90
9125;DHT22;4597;48.730;9.114;2023-04-01T20:10:53;9.50;99.90
9125;DHT22;4597;48.730;9.114;2023-04-01T20:13:30;9.60;99.90
9125;DHT22;4597;48.730;9.114;2023-04-01T20:16:06;9.60;99.90
9125;DHT22;4597;48.730;9.114;2023-04-01T20:18:48;9.60;99.90
9125;DHT22;4597;48.730;9.114;2023-04-01T20:24:26;9.80;99.90
9125;DHT22;4597;48.730;9.114;2023-04-01T20:26:35;9.80;99.90
9125;DHT22;4597;48.730;9.114;2023-04-01T20:35:36;9.80;99.90
9125;DHT22;4597;48.730;9.114;2023-04-01T20:38:26;9.80;99.90
9125;DHT22;4597;48.730;9.114;2023-04-01T20:41:07;9.80;99.90
9125;DHT22;4597;48.730;9.114;2023-04-01T20:46:35;9.80;99.90
9125;DHT22;4597;48.730;9.114;2023-04-01T20:51:46;9.80;99.90
9125;DHT22;4597;48.730;9.114;2023-04-01T20:57:51;9.70;99.90
9125;DHT22;4597;48.730;9.114;2023-04-01T21:00:55;9.80;99.90
9125;DHT22;4597;48.730;9.114;2023-04-01T21:03:55;9.80;99.90
9125;DHT22;4597;48.730;9.114;2023-04-01T21:09:06;9.90;99.90
9125;DHT22;4597;48.730;9.114;2023-04-01T21:11:56;9.80;99.90
9125;DHT22;4597;48.730;9.114;2023-04-01T21:32:15;10.00;99.90
9125;DHT22;4597;48.730;9.114;2023-04-01T21:41:06;9.80;99.90
9125;DHT22;4597;48.730;9.114;2023-04-01T21:43:52;9.80;99.90
9125;DHT22;4597;48.730;9.114;2023-04-01T21:54:49;9.70;99.90
9125;DHT22;4597;48.730;9.114;2023-04-01T22:00:20;9.80;99.90
9125;DHT22;4597;48.730;9.114;2023-04-01T22:11:34;9.80;99.90
9125;DHT22;4597;48.730;9.114;2023-04-01T22:14:17;9.80;99.90
9125;DHT22;4597;48.730;9.114;2023-04-01T22:17:16;9.80;99.90
9125;DHT22;4597;48.730;9.114;2023-04-01T22:23:08;9.70;99.90
9125;DHT22;4597;48.730;9.114;2023-04-01T22:31:13;9.70;99.90
9125;DHT22;4597;48.730;9.114;2023-04-01T22:33:44;9.60;99.90
9125;DHT22;4597;48.730;9.114;2023-04-01T22:36:38;9.70;99.90
9125;DHT22;4597;48.730;9.114;2023-04-01T22:50:01;9.80;99.90
9125;DHT22;4597;48.730;9.114;2023-04-01T22:52:37;9.80;99.90
9125;DHT22;4597;48.730;9.114;2023-04-01T22:55:17;9.80;99.90
9125;DHT22;4597;48.730;9.114;2023-04-01T22:57:50;9.70;99.90
9125;DHT22;4597;48.730;9.114;2023-04-01T23:00:24;9.80;99.90
9125;DHT22;4597;48.730;9.114;2023-04-01T23:05:57;9.70;99.90
9125;DHT22;4597;48.730;9.114;2023-04-01T23:08:47;9.80;99.90
9125;DHT22;4597;48.730;9.114;2023-04-01T23:11:28;9.80;99.90
9125;DHT22;4597;48.730;9.114;2023-04-01T23:14:14;9.80;99.90
9125;DHT22;4597;48.730;9.114;2023-04-01T23:16:50;9.80;99.90
9125;DHT22;4597;48.730;9.114;2023-04-01T23:19:29;9.70;99.90
9125;DHT22;4597;48.730;9.114;2023-04-01T23:24:50;9.80;99.90
9125;DHT22;4597;48.730;9.114;2023-04-01T23:27:33;9.80;99.90
9125;DHT22;4597;48.730;9.114;2023-04-01T23:30:02;9.80;99.90
9125;DHT22;4597;48.730;9.114;2023-04-01T23:32:29;9.70;99.90
9125;DHT22;4597;48.730;9.114;2023-04-01T23:34:59;9.70;99.90
9125;DHT22;4597;48.730;9.114;2023-04-01T23:37:26;9.70;99.90
9125;DHT22;4597;48.730;9.114;2023-04-01T23:39:54;9.80;99.90
9125;DHT22;4597;48.730;9.114;2023-04-01T23:42:27;9.80;99.90
9125;DHT22;4597;48.730;9.114;2023-04-01T23:44:57;9.80;99.90
9125;DHT22;4597;48.730;9.114;2023-04-01T23:47:32;9.70;99.90
9125;DHT22;4597;48.730;9.114;2023-04-01T23:50:00;9.80;99.90
9125;DHT22;4597;48.730;9.114;2023-04-01T23:52:30;9.80;99.90
9125;DHT22;4597;48.730;9.114;2023-04-01T23:55:00;9.80;99.90
9125;DHT22;4597;48.730;9.114;2023-04-01T23:57:35;9.80;99.90
